Terminal Aerodrome Forecast
Issued by NWS

Home | Current Version | Previous Version | Graphics & Text | Print | Product List | Glossary On
Versions: 1 2 3 4 5 6 7 8 9 10 11 12 13 14 15 16 17 18 19 20 21 22 23 24 25 26 27 28 29 30 31 32 33 34
000
FTUS43 KGRB 301100
TAFRHI
TAF
KRHI 301127Z 3012/3112 VRB02KT 2SM BR BKN004
      TEMPO 3012/3013 1/4SM FG VV002
     FM301400 30006KT P6SM SCT020
     FM302000 28007KT P6SM VCSH SCT050 BKN080
     FM310300 27003KT 6SM BR SCT070
      TEMPO 3107/3111 1 1/2SM BR SCT005=

USA.gov is the U.S. government's official web portal to all federal, state and local government web resources and services.